Time;durP1;ratioP1;P1;durP2;ratioP2;P2;SDS_P1;SDS_P2;PMS_P1;PMS_P2;Temp;Humidity;BMP_temperature;BMP_pressure;BME280_temperature;BME280_humidity;BME280_pressure;Samples;Min_cycle;Max_cycle;Signal;HPM_P1;HPM_P2
2023/10/25 00:02:19;;;;;;;13.30;8.32;;;9.20;99.90;;;;;;5039708;28;20173;-69
2023/10/25 00:04:45;;;;;;;15.93;8.38;;;9.10;99.90;;;;;;5039728;28;20137;-69
2023/10/25 00:07:11;;;;;;;17.20;8.80;;;9.10;99.90;;;;;;5055736;28;20044;-70
2023/10/25 00:09:36;;;;;;;17.23;9.38;;;9.00;99.90;;;;;;5039262;28;20397;-69
2023/10/25 00:12:02;;;;;;;15.88;8.90;;;9.00;99.90;;;;;;5055380;28;20036;-69
2023/10/25 00:14:28;;;;;;;14.50;8.88;;;9.00;99.90;;;;;;5039007;28;20492;-69
2023/10/25 00:16:54;;;;;;;15.75;9.10;;;9.00;99.90;;;;;;5056139;28;20117;-69
2023/10/25 00:19:20;;;;;;;14.77;8.43;;;9.00;99.90;;;;;;5055737;28;20037;-69
2023/10/25 00:21:45;;;;;;;15.32;8.63;;;9.00;99.90;;;;;;5055745;28;20060;-69
2023/10/25 00:24:11;;;;;;;15.55;9.20;;;8.90;99.90;;;;;;5039148;28;20381;-70
2023/10/25 00:26:37;;;;;;;16.52;9.35;;;8.90;99.90;;;;;;5055756;28;20051;-70
2023/10/25 00:29:03;;;;;;;14.45;9.10;;;8.90;99.90;;;;;;5022480;28;20043;-69
2023/10/25 00:31:29;;;;;;;18.45;9.73;;;8.80;99.90;;;;;;5039257;28;20507;-69
2023/10/25 00:33:55;;;;;;;14.52;9.02;;;8.80;99.90;;;;;;5055743;28;20040;-69
2023/10/25 00:36:21;;;;;;;14.15;9.20;;;8.80;99.90;;;;;;5055622;28;20106;-69
2023/10/25 00:38:47;;;;;;;12.93;8.55;;;8.70;99.90;;;;;;5055527;28;20036;-69
2023/10/25 00:41:12;;;;;;;14.35;8.95;;;8.70;99.90;;;;;;5038892;28;20047;-69
2023/10/25 00:43:38;;;;;;;17.35;9.38;;;8.70;99.90;;;;;;5055405;28;20493;-69
2023/10/25 00:46:20;;;;;;;18.15;9.10;;;8.70;99.90;;;;;;5055474;28;20032;-69
2023/10/25 00:48:47;;;;;;;16.60;9.17;;;8.70;99.90;;;;;;5055175;28;20037;-70
2023/10/25 00:51:14;;;;;;;17.45;9.68;;;8.70;99.90;;;;;;5055709;28;20051;-70
2023/10/25 00:53:42;;;;;;;14.88;9.15;;;8.60;99.90;;;;;;5055482;28;20495;-70
2023/10/25 00:56:10;;;;;;;16.83;9.45;;;8.70;99.90;;;;;;5055487;28;20157;-69
2023/10/25 00:58:38;;;;;;;15.43;8.75;;;8.60;99.90;;;;;;5038850;28;20036;-70
2023/10/25 01:01:05;;;;;;;14.98;9.63;;;8.60;99.90;;;;;;5055152;28;20048;-70
2023/10/25 01:03:31;;;;;;;15.48;9.35;;;8.60;99.90;;;;;;5055065;28;20036;-70
2023/10/25 01:05:57;;;;;;;18.80;9.18;;;8.60;99.90;;;;;;5055096;28;20093;-69
2023/10/25 01:08:23;;;;;;;13.75;8.90;;;8.50;99.90;;;;;;5054804;28;20052;-70
2023/10/25 01:10:53;;;;;;;17.88;9.55;;;8.60;99.90;;;;;;5038463;28;20045;-70
2023/10/25 01:13:19;;;;;;;14.48;9.30;;;8.60;99.90;;;;;;5038541;28;20041;-70
2023/10/25 01:15:46;;;;;;;14.98;9.40;;;8.50;99.90;;;;;;5071640;28;20036;-70
2023/10/25 01:18:13;;;;;;;17.80;10.25;;;8.60;99.90;;;;;;5054967;28;20044;-70
2023/10/25 01:20:39;;;;;;;15.75;9.63;;;8.60;99.90;;;;;;5055273;28;20487;-70
2023/10/25 01:23:05;;;;;;;19.33;10.27;;;8.50;99.90;;;;;;5055290;28;20130;-70
2023/10/25 01:25:31;;;;;;;19.05;10.68;;;8.50;99.90;;;;;;5042332;28;20037;-70
2023/10/25 01:27:57;;;;;;;17.17;10.02;;;8.50;99.90;;;;;;5059219;28;20472;-70
2023/10/25 01:30:23;;;;;;;18.85;9.63;;;8.50;99.90;;;;;;5059040;28;20036;-70
2023/10/25 01:32:49;;;;;;;16.73;9.38;;;8.50;99.90;;;;;;5025952;28;20446;-70
2023/10/25 01:35:14;;;;;;;17.88;10.07;;;8.50;99.90;;;;;;5058878;28;20511;-70
2023/10/25 01:37:40;;;;;;;17.10;10.25;;;8.50;99.90;;;;;;5042269;28;20125;-70
2023/10/25 01:40:07;;;;;;;16.85;9.88;;;8.50;99.90;;;;;;5059227;28;20123;-70
2023/10/25 01:42:32;;;;;;;19.88;10.73;;;8.50;99.90;;;;;;5042430;28;20513;-70
2023/10/25 01:45:01;;;;;;;16.50;9.70;;;8.50;99.90;;;;;;5058813;28;20086;-70
2023/10/25 01:47:27;;;;;;;20.20;10.05;;;8.50;99.90;;;;;;5058993;28;20047;-70
2023/10/25 01:49:52;;;;;;;18.17;10.18;;;8.40;99.90;;;;;;5041888;28;20119;-70
2023/10/25 01:52:18;;;;;;;16.88;10.75;;;8.40;99.90;;;;;;5041900;28;20036;-70
2023/10/25 01:54:46;;;;;;;16.92;10.23;;;8.50;99.90;;;;;;5058571;28;20037;-70
2023/10/25 01:57:15;;;;;;;16.40;9.93;;;8.40;99.90;;;;;;5058461;28;20040;-70
2023/10/25 01:59:41;;;;;;;19.25;11.32;;;8.40;99.90;;;;;;5025436;28;20033;-70
2023/10/25 02:02:07;;;;;;;18.67;11.00;;;8.40;99.90;;;;;;5042241;28;20442;-70
2023/10/25 02:04:33;;;;;;;20.67;10.88;;;8.40;99.90;;;;;;5058402;28;20052;-70
2023/10/25 02:06:59;;;;;;;19.10;10.63;;;8.40;99.90;;;;;;5058317;28;20105;-70
2023/10/25 02:09:24;;;;;;;17.50;11.00;;;8.40;99.90;;;;;;5057946;28;20061;-70
2023/10/25 02:11:50;;;;;;;18.80;11.93;;;8.40;99.90;;;;;;5041654;28;20036;-70
2023/10/25 02:14:16;;;;;;;19.45;11.95;;;8.40;99.90;;;;;;5041613;28;20068;-70
2023/10/25 02:16:42;;;;;;;17.05;10.65;;;8.30;99.90;;;;;;5058182;28;20037;-70
2023/10/25 02:19:08;;;;;;;18.08;10.77;;;8.40;99.90;;;;;;5058473;28;20052;-70
2023/10/25 02:21:36;;;;;;;17.42;11.20;;;8.30;99.90;;;;;;5057969;28;20055;-69
2023/10/25 02:24:05;;;;;;;17.00;11.05;;;8.30;99.90;;;;;;5041791;28;20041;-69
2023/10/25 02:26:32;;;;;;;19.08;11.40;;;8.30;99.90;;;;;;5058393;28;20051;-70
2023/10/25 02:28:58;;;;;;;22.17;11.70;;;8.30;99.90;;;;;;5057808;28;20157;-70
2023/10/25 02:31:24;;;;;;;19.00;10.88;;;8.30;99.90;;;;;;5057970;28;20036;-70
2023/10/25 02:33:50;;;;;;;19.17;11.43;;;8.30;99.90;;;;;;5058066;28;20032;-70
2023/10/25 02:36:16;;;;;;;20.20;12.15;;;8.30;99.90;;;;;;5057170;28;20123;-70
2023/10/25 02:38:41;;;;;;;19.63;11.48;;;8.40;99.90;;;;;;5024759;28;20041;-70
2023/10/25 02:41:07;;;;;;;20.27;11.25;;;8.30;99.90;;;;;;5041012;28;20040;-70
2023/10/25 02:43:34;;;;;;;17.83;11.15;;;8.30;99.90;;;;;;5057709;28;20113;-70
2023/10/25 02:46:07;;;;;;;18.42;10.93;;;8.30;99.90;;;;;;5041173;28;20408;-70
2023/10/25 02:48:33;;;;;;;18.58;11.18;;;8.30;99.90;;;;;;5041096;28;20508;-70
2023/10/25 02:51:00;;;;;;;20.52;11.05;;;8.30;99.90;;;;;;5057838;28;20054;-70
2023/10/25 02:53:26;;;;;;;18.98;11.98;;;8.30;99.90;;;;;;5041026;28;20079;-70
2023/10/25 02:56:02;;;;;;;22.30;12.40;;;8.40;99.90;;;;;;5057368;28;20032;-70
2023/10/25 02:58:28;;;;;;;18.48;11.38;;;8.40;99.90;;;;;;5057514;28;20048;-70
2023/10/25 03:00:56;;;;;;;20.83;11.90;;;8.30;99.90;;;;;;5040918;28;20131;-70
2023/10/25 03:03:22;;;;;;;20.33;11.63;;;8.30;99.90;;;;;;5040899;28;20036;-70
2023/10/25 03:05:48;;;;;;;19.10;12.23;;;8.30;99.90;;;;;;5057184;28;20127;-70
2023/10/25 03:08:14;;;;;;;19.92;12.45;;;8.30;99.90;;;;;;5023766;28;20135;-70
2023/10/25 03:10:39;;;;;;;18.73;11.50;;;8.30;99.90;;;;;;5057534;28;20465;-70
2023/10/25 03:13:05;;;;;;;20.52;12.00;;;8.20;99.90;;;;;;5024095;28;20123;-70
2023/10/25 03:15:31;;;;;;;21.15;11.35;;;8.20;99.90;;;;;;5040791;28;20388;-70
2023/10/25 03:17:56;;;;;;;19.75;11.23;;;8.20;99.90;;;;;;5040314;28;20040;-70
2023/10/25 03:20:22;;;;;;;19.40;12.70;;;8.20;99.90;;;;;;5056999;28;20390;-70
2023/10/25 03:22:48;;;;;;;19.40;11.57;;;8.20;99.90;;;;;;5057137;28;20048;-70
2023/10/25 03:25:14;;;;;;;21.67;11.15;;;8.20;99.90;;;;;;5056927;28;20040;-71
2023/10/25 03:27:40;;;;;;;14.93;10.57;;;8.20;99.90;;;;;;5056660;28;20040;-70
2023/10/25 03:30:06;;;;;;;18.67;11.10;;;8.20;99.90;;;;;;5023898;28;20076;-70
2023/10/25 03:32:32;;;;;;;18.40;11.40;;;8.20;99.90;;;;;;5056969;28;20040;-70
2023/10/25 03:34:57;;;;;;;20.00;11.85;;;8.10;99.90;;;;;;5056887;28;20043;-70
2023/10/25 03:37:23;;;;;;;18.70;11.48;;;8.10;99.90;;;;;;5023712;28;20036;-70
2023/10/25 03:39:49;;;;;;;21.58;11.93;;;8.10;99.90;;;;;;5056724;28;20090;-70
2023/10/25 03:42:15;;;;;;;22.05;12.63;;;8.10;99.90;;;;;;5040215;28;20093;-70
2023/10/25 03:44:40;;;;;;;18.80;11.30;;;8.10;99.90;;;;;;5056609;28;20041;-70
2023/10/25 03:47:06;;;;;;;19.10;11.68;;;8.10;99.90;;;;;;5055811;28;20041;-70
2023/10/25 03:49:32;;;;;;;18.17;11.30;;;8.10;99.90;;;;;;5056180;28;20045;-70
2023/10/25 03:51:57;;;;;;;18.88;11.73;;;8.10;99.90;;;;;;5040124;28;20037;-70
2023/10/25 03:54:23;;;;;;;18.85;11.00;;;8.10;99.90;;;;;;5039755;28;20040;-70
2023/10/25 03:56:49;;;;;;;19.75;10.90;;;8.00;99.90;;;;;;5039665;28;20152;-70
2023/10/25 03:59:15;;;;;;;19.30;11.30;;;8.00;99.90;;;;;;5023473;28;20397;-70
2023/10/25 04:01:41;;;;;;;17.73;10.85;;;8.00;99.90;;;;;;5056058;28;20036;-70
2023/10/25 04:04:07;;;;;;;16.98;10.13;;;8.00;99.90;;;;;;5056107;28;20056;-71
2023/10/25 04:06:33;;;;;;;20.45;10.95;;;8.00;99.90;;;;;;5056261;28;20044;-70
2023/10/25 04:08:59;;;;;;;22.90;11.80;;;8.00;99.90;;;;;;5055871;28;20057;-70
2023/10/25 04:11:25;;;;;;;17.30;9.80;;;8.00;99.90;;;;;;5056014;28;20404;-70
2023/10/25 04:13:50;;;;;;;18.65;10.65;;;8.00;99.90;;;;;;5056137;28;20435;-70
2023/10/25 04:16:16;;;;;;;20.45;10.13;;;8.00;99.90;;;;;;5055845;28;20044;-70
2023/10/25 04:18:41;;;;;;;16.63;10.32;;;7.90;99.90;;;;;;5055908;28;20560;-70
2023/10/25 04:21:12;;;;;;;19.27;11.15;;;7.90;99.90;;;;;;5056030;28;20044;-69
2023/10/25 04:23:38;;;;;;;19.10;10.70;;;7.90;99.90;;;;;;5055761;28;20127;-70
2023/10/25 04:26:12;;;;;;;16.80;10.75;;;7.90;99.90;;;;;;5039077;28;20043;-70
2023/10/25 04:28:40;;;;;;;19.00;10.95;;;7.90;99.90;;;;;;5039515;28;20040;-70
2023/10/25 04:31:10;;;;;;;22.00;11.75;;;7.80;99.90;;;;;;5055623;28;20048;-70
2023/10/25 04:33:39;;;;;;;20.00;10.95;;;7.80;99.90;;;;;;5039320;28;20041;-70
2023/10/25 04:36:06;;;;;;;20.10;10.82;;;7.80;99.90;;;;;;5072645;28;20516;-70
2023/10/25 04:38:32;;;;;;;19.83;10.55;;;7.80;99.90;;;;;;5038922;28;20047;-70
2023/10/25 04:40:58;;;;;;;19.30;11.20;;;7.70;99.90;;;;;;5055666;28;20048;-70
2023/10/25 04:43:24;;;;;;;16.63;11.07;;;7.70;99.90;;;;;;5055703;28;20063;-71
2023/10/25 04:45:51;;;;;;;19.15;11.52;;;7.70;99.90;;;;;;5055320;28;20044;-70
2023/10/25 04:48:18;;;;;;;18.15;11.15;;;7.60;99.90;;;;;;5038849;28;20097;-69
2023/10/25 04:50:44;;;;;;;17.65;11.13;;;7.60;99.90;;;;;;5038724;28;20042;-69
2023/10/25 04:53:10;;;;;;;21.45;12.40;;;7.60;99.90;;;;;;5055333;28;20047;-69
2023/10/25 04:55:36;;;;;;;18.02;11.45;;;7.60;99.90;;;;;;5038634;28;20048;-69
2023/10/25 04:58:03;;;;;;;22.17;11.82;;;7.60;99.90;;;;;;5022049;28;20074;-69
2023/10/25 05:00:30;;;;;;;18.90;11.48;;;7.60;99.90;;;;;;5038746;28;20416;-69
2023/10/25 05:02:56;;;;;;;19.50;11.68;;;7.50;99.90;;;;;;5055158;28;20059;-69
2023/10/25 05:05:22;;;;;;;21.50;11.43;;;7.60;99.90;;;;;;5055167;28;20595;-69
2023/10/25 05:07:48;;;;;;;21.92;12.43;;;7.60;99.90;;;;;;5054858;28;20127;-69
2023/10/25 05:10:15;;;;;;;20.88;12.15;;;7.60;99.90;;;;;;5035316;28;20049;-69
2023/10/25 05:12:46;;;;;;;18.75;12.27;;;7.60;99.90;;;;;;5035171;28;20385;-69
2023/10/25 05:15:14;;;;;;;20.33;12.60;;;7.60;99.90;;;;;;5018927;28;20123;-69
2023/10/25 05:17:41;;;;;;;19.20;12.20;;;7.60;99.90;;;;;;5051815;28;20148;-69
2023/10/25 05:20:07;;;;;;;16.92;11.18;;;7.50;99.90;;;;;;5035099;28;20041;-69
2023/10/25 05:22:38;;;;;;;20.15;11.52;;;7.50;99.90;;;;;;5035013;28;20094;-69
2023/10/25 05:25:06;;;;;;;20.13;12.15;;;7.50;99.90;;;;;;5051599;28;20389;-69
2023/10/25 05:27:33;;;;;;;17.05;10.52;;;7.50;99.90;;;;;;5051536;28;20102;-69
2023/10/25 05:30:03;;;;;;;20.25;12.13;;;7.50;99.90;;;;;;5035131;28;20051;-69
2023/10/25 05:32:30;;;;;;;18.67;11.82;;;7.50;99.90;;;;;;5018816;28;20041;-69
2023/10/25 05:34:57;;;;;;;19.25;12.05;;;7.40;99.90;;;;;;5034908;28;20044;-69
2023/10/25 05:37:24;;;;;;;21.25;11.45;;;7.50;99.90;;;;;;5051756;28;20366;-69
2023/10/25 05:39:50;;;;;;;20.35;12.25;;;7.40;99.90;;;;;;5018679;28;20037;-69
2023/10/25 05:42:20;;;;;;;21.17;12.23;;;7.50;99.90;;;;;;5018384;28;20044;-71
2023/10/25 05:44:51;;;;;;;17.70;11.57;;;7.40;99.90;;;;;;5051503;28;20033;-69
2023/10/25 05:47:26;;;;;;;18.92;12.38;;;7.50;99.90;;;;;;5051337;28;20056;-69
2023/10/25 05:49:53;;;;;;;19.70;12.60;;;7.50;99.90;;;;;;5051605;28;20489;-70
2023/10/25 05:52:20;;;;;;;18.88;12.18;;;7.50;99.90;;;;;;5018700;28;20401;-70
2023/10/25 05:54:45;;;;;;;20.80;11.70;;;7.40;99.90;;;;;;5018409;28;20041;-69
2023/10/25 05:57:12;;;;;;;19.95;12.68;;;7.50;99.90;;;;;;5034816;28;20401;-71
2023/10/25 05:59:39;;;;;;;22.20;13.02;;;7.50;99.90;;;;;;5035063;28;20584;-71
2023/10/25 06:02:17;;;;;;;22.50;13.38;;;7.50;99.90;;;;;;5034720;28;20037;-71
2023/10/25 06:04:43;;;;;;;23.45;13.02;;;7.50;99.90;;;;;;5051504;28;20037;-71
2023/10/25 06:07:10;;;;;;;21.15;12.90;;;7.40;99.90;;;;;;5034549;28;20048;-70
2023/10/25 06:09:37;;;;;;;15.57;10.15;;;7.40;99.90;;;;;;5014780;28;20053;-70
2023/10/25 06:12:04;;;;;;;20.83;12.35;;;7.40;99.90;;;;;;5034157;28;20124;-71
2023/10/25 06:14:31;;;;;;;19.55;12.35;;;7.40;99.90;;;;;;5035099;28;20077;-70
2023/10/25 06:17:00;;;;;;;19.02;12.13;;;7.40;99.90;;;;;;5034980;28;20037;-72
2023/10/25 06:19:27;;;;;;;23.88;12.48;;;7.40;99.90;;;;;;5000495;28;20055;-71
2023/10/25 06:21:54;;;;;;;22.95;13.40;;;7.50;99.90;;;;;;5015393;28;20044;-69
2023/10/25 06:24:20;;;;;;;21.52;12.88;;;7.40;99.90;;;;;;5015081;28;20038;-71
2023/10/25 06:26:46;;;;;;;22.15;12.05;;;7.40;99.90;;;;;;5015340;28;20045;-70
2023/10/25 06:29:12;;;;;;;20.88;11.20;;;7.50;99.90;;;;;;4998593;28;20042;-71
2023/10/25 06:31:38;;;;;;;21.65;12.20;;;7.50;99.90;;;;;;5015086;28;20073;-70
2023/10/25 06:34:03;;;;;;;21.35;11.15;;;7.60;99.90;;;;;;5015139;28;20057;-70
2023/10/25 06:36:32;;;;;;;22.63;13.10;;;7.70;99.90;;;;;;5014743;28;20057;-70
2023/10/25 06:38:58;;;;;;;20.52;11.70;;;7.70;99.90;;;;;;5014764;28;20049;-71
2023/10/25 06:41:24;;;;;;;19.25;10.15;;;7.70;99.90;;;;;;5014687;28;20042;-71
2023/10/25 06:43:51;;;;;;;16.45;10.40;;;7.80;99.90;;;;;;5014875;28;20049;-71
2023/10/25 06:46:17;;;;;;;18.85;10.90;;;7.80;99.90;;;;;;5014646;28;20162;-71
2023/10/25 06:48:43;;;;;;;17.30;10.38;;;7.80;99.90;;;;;;5014474;28;20049;-71
2023/10/25 06:51:09;;;;;;;17.65;10.23;;;7.80;99.90;;;;;;4998393;28;20568;-68
2023/10/25 06:53:38;;;;;;;17.25;11.05;;;7.80;99.90;;;;;;5014242;28;20128;-69
2023/10/25 06:56:05;;;;;;;20.45;11.60;;;7.80;99.90;;;;;;5014703;28;20482;-69
2023/10/25 06:58:31;;;;;;;15.93;11.55;;;7.80;99.90;;;;;;5014318;28;20053;-68
2023/10/25 07:00:57;;;;;;;19.00;11.60;;;7.80;99.90;;;;;;5014393;28;20044;-69
2023/10/25 07:03:35;;;;;;;23.17;12.38;;;7.80;99.90;;;;;;5014316;28;20046;-68
2023/10/25 07:06:03;;;;;;;20.63;12.80;;;7.80;99.90;;;;;;5014459;28;20159;-69
2023/10/25 07:08:32;;;;;;;22.63;13.05;;;7.80;99.90;;;;;;5014144;28;20137;-68
2023/10/25 07:10:58;;;;;;;18.55;12.70;;;7.90;99.90;;;;;;5014336;28;20070;-68
2023/10/25 07:13:26;;;;;;;21.73;13.07;;;7.90;99.90;;;;;;5014418;28;20100;-69
2023/10/25 07:15:53;;;;;;;21.40;13.93;;;8.00;99.90;;;;;;4997651;28;20034;-69
2023/10/25 07:18:18;;;;;;;21.92;13.43;;;8.00;99.90;;;;;;5014230;28;20491;-69
2023/10/25 07:20:44;;;;;;;22.20;13.70;;;8.00;99.90;;;;;;5014096;28;20049;-69
2023/10/25 07:23:10;;;;;;;21.95;14.85;;;8.10;99.90;;;;;;5013612;28;20045;-68
2023/10/25 07:25:38;;;;;;;24.02;14.55;;;8.10;99.90;;;;;;5013838;28;20057;-69
2023/10/25 07:28:07;;;;;;;18.77;12.75;;;8.20;99.90;;;;;;5013691;28;20050;-69
2023/10/25 07:30:34;;;;;;;22.15;14.20;;;8.30;99.90;;;;;;5013767;28;20038;-69
2023/10/25 07:33:00;;;;;;;25.48;15.02;;;8.30;99.90;;;;;;5013876;28;20379;-69
2023/10/25 07:35:26;;;;;;;18.90;14.30;;;8.30;99.90;;;;;;5013891;28;20096;-69
2023/10/25 07:37:51;;;;;;;20.85;14.68;;;8.40;99.90;;;;;;5013824;28;20130;-69
2023/10/25 07:40:17;;;;;;;23.17;14.10;;;8.40;99.90;;;;;;5013791;28;20053;-69
2023/10/25 07:42:43;;;;;;;18.17;13.05;;;8.50;99.90;;;;;;5013476;28;20053;-68
2023/10/25 07:45:09;;;;;;;19.75;12.73;;;8.50;99.90;;;;;;5013866;28;20050;-68
2023/10/25 07:47:35;;;;;;;22.17;13.10;;;8.60;99.90;;;;;;5013458;28;20085;-69
2023/10/25 07:50:01;;;;;;;21.42;13.50;;;8.60;99.90;;;;;;5013396;28;20034;-68
2023/10/25 07:52:29;;;;;;;21.23;12.82;;;8.60;99.90;;;;;;5013553;28;20386;-69
2023/10/25 07:54:55;;;;;;;20.58;12.50;;;8.70;99.90;;;;;;5013356;28;20033;-69
2023/10/25 07:57:21;;;;;;;16.95;11.63;;;8.70;99.90;;;;;;5013281;28;20049;-68
2023/10/25 07:59:47;;;;;;;16.15;11.55;;;8.80;99.90;;;;;;5013268;28;20081;-69
2023/10/25 08:02:13;;;;;;;18.58;12.20;;;8.80;99.90;;;;;;5013201;28;20438;-68
2023/10/25 08:04:38;;;;;;;17.42;11.40;;;8.90;99.90;;;;;;5013104;28;20046;-69
2023/10/25 08:07:04;;;;;;;16.15;11.95;;;8.90;99.90;;;;;;5013446;28;20041;-69
2023/10/25 08:09:30;;;;;;;16.92;9.57;;;8.90;99.90;;;;;;5012801;28;20060;-69
2023/10/25 08:11:56;;;;;;;20.05;12.23;;;8.90;99.90;;;;;;5013265;28;20072;-69
2023/10/25 08:14:22;;;;;;;18.40;11.00;;;9.00;99.90;;;;;;5013309;28;20037;-68
2023/10/25 08:16:49;;;;;;;17.27;11.23;;;9.00;99.90;;;;;;5012912;28;20048;-68
2023/10/25 08:19:15;;;;;;;19.00;11.18;;;9.10;99.90;;;;;;5012827;28;20049;-68
2023/10/25 08:21:41;;;;;;;19.38;11.05;;;9.10;99.90;;;;;;5012860;28;20053;-68
2023/10/25 08:24:07;;;;;;;17.73;11.05;;;9.10;99.90;;;;;;5013043;28;20046;-68
2023/10/25 08:26:37;;;;;;;17.35;12.13;;;9.10;99.90;;;;;;5012998;28;20441;-69
2023/10/25 08:29:05;;;;;;;20.38;11.80;;;9.10;99.90;;;;;;5012725;28;20100;-69
2023/10/25 08:31:31;;;;;;;18.67;11.70;;;9.10;99.90;;;;;;4996574;28;20048;-68
2023/10/25 08:33:57;;;;;;;17.38;11.75;;;9.20;99.90;;;;;;5012068;28;20057;-69
2023/10/25 08:36:23;;;;;;;16.52;11.52;;;9.20;99.90;;;;;;5012569;28;20034;-69
2023/10/25 08:38:49;;;;;;;18.00;11.82;;;9.30;99.90;;;;;;5012905;28;20042;-68
2023/10/25 08:41:17;;;;;;;15.90;10.88;;;9.30;99.90;;;;;;5012672;28;20064;-70
2023/10/25 08:43:43;;;;;;;16.45;11.30;;;9.40;99.90;;;;;;5012787;28;20091;-69
2023/10/25 08:46:10;;;;;;;14.07;10.02;;;9.40;99.90;;;;;;5012633;28;20049;-69
2023/10/25 08:48:36;;;;;;;15.45;10.82;;;9.50;99.90;;;;;;5012284;28;20052;-69
2023/10/25 08:51:03;;;;;;;17.02;10.70;;;9.50;99.90;;;;;;5013627;28;20034;-69
2023/10/25 08:53:29;;;;;;;17.17;11.93;;;9.60;99.90;;;;;;5028140;28;20045;-68
2023/10/25 08:55:58;;;;;;;17.65;10.90;;;9.60;99.90;;;;;;4995845;28;20396;-69
2023/10/25 08:58:25;;;;;;;17.23;10.23;;;9.70;99.90;;;;;;5012235;28;20103;-69
2023/10/25 09:00:52;;;;;;;15.77;11.07;;;9.70;99.90;;;;;;5012454;28;20042;-69
2023/10/25 09:03:30;;;;;;;19.42;10.48;;;9.80;99.90;;;;;;4995985;28;20045;-68
2023/10/25 09:05:56;;;;;;;14.98;10.55;;;9.80;99.90;;;;;;5012155;28;20059;-69
2023/10/25 09:08:25;;;;;;;16.67;10.88;;;9.90;99.90;;;;;;5012130;28;20406;-69
2023/10/25 09:11:01;;;;;;;15.88;10.43;;;10.00;99.90;;;;;;5012065;28;20100;-69
2023/10/25 09:13:27;;;;;;;17.98;10.95;;;10.10;99.90;;;;;;5012306;28;20038;-69
2023/10/25 09:16:05;;;;;;;14.95;10.23;;;10.20;99.90;;;;;;5012066;28;20038;-69
2023/10/25 09:18:32;;;;;;;16.63;10.70;;;10.30;99.90;;;;;;5012353;28;20128;-69
2023/10/25 09:20:59;;;;;;;15.07;10.75;;;10.40;99.90;;;;;;5012028;28;20077;-69
2023/10/25 09:23:24;;;;;;;18.15;9.63;;;10.50;99.90;;;;;;5012325;28;20128;-69
2023/10/25 09:25:50;;;;;;;13.10;9.30;;;10.60;99.90;;;;;;5012033;28;20084;-70
2023/10/25 09:28:27;;;;;;;16.63;8.98;;;10.80;99.90;;;;;;5011865;28;20128;-69
2023/10/25 09:30:58;;;;;;;14.20;9.13;;;10.90;99.90;;;;;;5028625;28;20049;-69
2023/10/25 09:33:27;;;;;;;14.52;8.00;;;11.00;99.90;;;;;;5012060;28;20099;-69
2023/10/25 09:35:53;;;;;;;11.93;8.15;;;11.10;99.90;;;;;;5012239;28;20042;-70
2023/10/25 09:38:19;;;;;;;10.18;7.57;;;11.20;99.90;;;;;;4995614;28;20180;-70
2023/10/25 09:40:46;;;;;;;11.10;7.00;;;11.20;99.90;;;;;;4995559;28;20111;-69
2023/10/25 09:43:19;;;;;;;10.77;6.70;;;11.30;99.90;;;;;;4995889;28;20124;-70
2023/10/25 09:45:51;;;;;;;10.35;6.18;;;11.30;99.90;;;;;;4998817;28;20088;-70
2023/10/25 09:48:18;;;;;;;;;;;11.40;99.90;;;;;;5032751;28;20508;-70
2023/10/25 09:51:11;;;;;;;12.40;6.43;;;11.40;99.90;;;;;;5032471;28;19940;-70
2023/10/25 09:53:57;;;;;;;;;;;11.40;99.90;;;;;;5015996;28;20049;-70
2023/10/25 09:56:23;;;;;;;11.68;6.70;;;11.50;99.90;;;;;;5032391;28;19925;-69
2023/10/25 09:58:51;;;;;;;13.43;6.97;;;11.50;99.90;;;;;;5015464;28;20046;-69
2023/10/25 10:01:16;;;;;;;12.40;7.65;;;11.60;99.90;;;;;;5015756;28;20045;-69
2023/10/25 10:03:51;;;;;;;11.93;7.70;;;11.70;99.90;;;;;;5015468;28;20048;-69
2023/10/25 10:06:17;;;;;;;11.25;6.90;;;11.70;99.90;;;;;;4999277;28;20045;-70
2023/10/25 10:09:18;;;;;;;11.95;6.65;;;11.80;99.90;;;;;;5015145;28;20042;-70
2023/10/25 10:11:51;;;;;;;9.85;5.97;;;11.80;99.90;;;;;;4993708;28;20196;-70
2023/10/25 10:14:32;;;;;;;11.32;6.40;;;11.80;99.90;;;;;;4999095;28;20042;-70
2023/10/25 10:16:59;;;;;;;9.60;5.88;;;11.90;99.90;;;;;;5015177;28;20410;-69
2023/10/25 10:19:25;;;;;;;11.30;6.10;;;11.90;99.90;;;;;;5015143;28;20050;-69
2023/10/25 10:22:14;;;;;;;11.82;6.05;;;11.90;99.90;;;;;;4998836;28;20056;-69
2023/10/25 10:24:56;;;;;;;11.27;5.63;;;11.90;99.90;;;;;;5015085;28;20042;-70
2023/10/25 10:27:54;;;;;;;10.30;5.10;;;11.90;99.90;;;;;;4999186;28;20482;-70
2023/10/25 10:30:39;;;;;;;10.40;5.40;;;11.80;99.90;;;;;;5015217;28;20042;-71
2023/10/25 10:33:11;;;;;;;12.18;5.97;;;11.80;99.90;;;;;;5015142;28;20484;-69
2023/10/25 10:35:48;;;;;;;11.73;5.95;;;11.80;99.90;;;;;;5014881;28;20081;-70
2023/10/25 10:38:14;;;;;;;11.95;5.88;;;11.80;99.90;;;;;;4998873;28;20050;-70
2023/10/25 10:40:39;;;;;;;8.93;5.30;;;11.80;99.90;;;;;;5014969;28;20114;-70
2023/10/25 10:43:06;;;;;;;10.90;6.10;;;11.80;99.90;;;;;;5014820;28;20083;-69
2023/10/25 10:45:33;;;;;;;9.40;5.72;;;11.80;99.90;;;;;;4998757;28;20060;-69
2023/10/25 10:48:22;;;;;;;10.57;6.32;;;11.90;99.90;;;;;;4998243;28;20042;-70
2023/10/25 10:50:49;;;;;;;10.60;6.15;;;11.90;99.90;;;;;;5014561;28;20038;-70
2023/10/25 10:53:15;;;;;;;9.90;5.85;;;12.00;99.90;;;;;;5031265;28;20045;-69
2023/10/25 10:55:41;;;;;;;10.38;5.68;;;12.10;99.90;;;;;;5014401;28;20069;-70
2023/10/25 10:58:07;;;;;;;10.23;5.05;;;12.10;99.90;;;;;;5014116;28;20127;-70
2023/10/25 11:00:33;;;;;;;10.80;5.20;;;12.10;99.90;;;;;;5014621;28;20052;-70
2023/10/25 11:03:03;;;;;;;11.45;4.53;;;12.20;99.90;;;;;;5014188;28;20064;-70
2023/10/25 11:05:29;;;;;;;10.60;4.72;;;12.20;99.90;;;;;;5014295;28;20041;-70
2023/10/25 11:07:55;;;;;;;8.55;4.70;;;12.20;99.90;;;;;;5014609;28;20051;-69
2023/10/25 11:10:21;;;;;;;7.55;4.75;;;12.20;99.90;;;;;;5017338;28;20417;-70
2023/10/25 11:12:47;;;;;;;10.30;5.00;;;12.30;99.90;;;;;;5001380;28;20456;-70
2023/10/25 11:15:13;;;;;;;9.38;4.55;;;12.20;99.90;;;;;;5017450;28;20045;-70
2023/10/25 11:17:39;;;;;;;8.43;4.50;;;12.20;99.90;;;;;;5001206;28;20091;-70
2023/10/25 11:20:06;;;;;;;10.50;4.45;;;12.20;99.90;;;;;;5017202;28;20041;-70
2023/10/25 11:22:33;;;;;;;10.65;4.63;;;12.30;99.90;;;;;;5017313;28;20124;-70
2023/10/25 11:24:59;;;;;;;8.73;4.50;;;12.20;99.90;;;;;;5001485;28;20045;-70
2023/10/25 11:27:30;;;;;;;8.98;4.30;;;12.20;99.90;;;;;;5034993;28;20034;-70
2023/10/25 11:29:56;;;;;;;10.52;4.53;;;12.20;99.90;;;;;;5001268;28;20437;-70
2023/10/25 11:32:21;;;;;;;9.77;4.90;;;12.20;99.90;;;;;;5000836;28;20033;-70
2023/10/25 11:34:52;;;;;;;8.82;4.10;;;12.10;99.90;;;;;;5000642;28;20451;-70
2023/10/25 11:37:19;;;;;;;9.90;4.60;;;12.20;99.90;;;;;;5017011;28;20042;-70
2023/10/25 11:40:01;;;;;;;7.90;4.65;;;12.10;99.90;;;;;;5016943;28;20041;-70
2023/10/25 11:42:30;;;;;;;7.70;4.57;;;12.00;99.90;;;;;;5001312;28;20045;-70
2023/10/25 11:44:55;;;;;;;10.55;4.80;;;12.00;99.90;;;;;;5016832;28;20042;-70
2023/10/25 11:47:22;;;;;;;8.48;4.72;;;12.00;99.90;;;;;;5016893;28;20475;-70
2023/10/25 11:49:52;;;;;;;8.40;4.65;;;12.00;99.90;;;;;;5016663;28;20037;-70
2023/10/25 11:52:26;;;;;;;8.20;4.53;;;12.00;99.90;;;;;;5016935;28;20052;-70
2023/10/25 11:54:55;;;;;;;10.75;5.07;;;12.00;99.90;;;;;;5016972;28;20045;-70
2023/10/25 11:57:27;;;;;;;9.65;4.68;;;12.00;99.90;;;;;;5016820;28;20124;-70
2023/10/25 11:59:52;;;;;;;10.37;4.57;;;11.90;99.90;;;;;;5016573;28;20042;-71
2023/10/25 12:02:29;;;;;;;11.07;5.13;;;12.00;99.90;;;;;;5016523;28;20402;-72
2023/10/25 12:04:56;;;;;;;10.60;5.03;;;11.90;99.90;;;;;;5000058;28;20060;-72
2023/10/25 12:07:22;;;;;;;9.63;4.72;;;11.90;99.90;;;;;;5016593;28;20042;-72
2023/10/25 12:09:49;;;;;;;11.07;4.93;;;11.90;99.90;;;;;;4999135;28;20274;-72
2023/10/25 12:12:15;;;;;;;9.15;4.38;;;11.90;99.90;;;;;;5016400;28;20080;-72
2023/10/25 12:14:41;;;;;;;10.00;4.55;;;11.80;99.90;;;;;;5016500;28;20124;-71
2023/10/25 12:17:07;;;;;;;9.80;4.75;;;11.80;99.90;;;;;;5016512;28;20132;-72
2023/10/25 12:19:36;;;;;;;11.48;4.63;;;11.90;99.90;;;;;;4999720;28;20033;-71
2023/10/25 12:22:08;;;;;;;11.55;4.85;;;11.80;99.90;;;;;;5016458;28;20052;-71
2023/10/25 12:24:35;;;;;;;;;;;11.70;99.90;;;;;;5000394;28;20047;-71
2023/10/25 12:27:01;;;;;;;9.60;5.28;;;11.70;99.90;;;;;;5016415;28;19917;-71
2023/10/25 12:29:27;;;;;;;11.00;4.97;;;11.70;99.90;;;;;;5016053;28;20445;-72
2023/10/25 12:31:54;;;;;;;12.02;5.53;;;11.60;99.90;;;;;;4999936;28;20498;-71
2023/10/25 12:34:19;;;;;;;11.77;5.07;;;11.60;99.90;;;;;;5015929;28;20076;-71
2023/10/25 12:36:45;;;;;;;12.52;5.47;;;11.60;99.90;;;;;;5016217;28;20046;-71
2023/10/25 12:39:11;;;;;;;10.80;5.30;;;11.50;99.90;;;;;;4999770;28;20034;-71
2023/10/25 12:41:37;;;;;;;9.88;5.30;;;11.50;99.90;;;;;;5015815;28;20080;-71
2023/10/25 12:44:08;;;;;;;10.07;5.35;;;11.60;99.90;;;;;;4999617;28;20046;-71